This is the latest recevied weather packets stored in our database for station/object KD5GAT-51. If no packets are shown the sender has not sent any weather packets the latest 10 day(s).
| Time | Temp. | Humidity | Pressure | Rain* | Wind** | Luminosity | Snow |
|---|---|---|---|---|---|---|---|
| 1777589729 | 26.11° C | 80% | 1011.6 hPa | - | - | - | - |
| 1777588829 | 27.22° C | 71% | 1011.5 hPa | - | - | - | - |
| 1777587929 | 28.33° C | 67% | 1011.3 hPa | - | - | - | - |
| 1777587028 | 27.78° C | 70% | 1011.2 hPa | - | - | - | - |
| 1777586137 | 26.67° C | 75% | 1011.3 hPa | - | - | - | - |
| 1777585236 | 27.22° C | 73% | 1011.4 hPa | - | - | - | - |
| 1777584336 | 26.67° C | 74% | 1011.6 hPa | - | - | - | - |
| 1777583436 | 27.78° C | 70% | 1012.1 hPa | - | - | - | - |
| 1777582536 | 27.78° C | 70% | 1012.2 hPa | - | - | - | - |
| 1777581636 | 27.78° C | 70% | 1012.4 hPa | - | - | - | - |
| 1777580736 | 27.22° C | 73% | 1012.8 hPa | - | - | - | - |
| 1777579835 | 28.33° C | 66% | 1012.7 hPa | - | - | - | - |
| 1777578935 | 28.33° C | 68% | 1013.1 hPa | - | - | - | - |
| 1777578035 | 27.22° C | 74% | 1013.3 hPa | - | - | - | - |
| 1777577135 | 27.78° C | 73% | 1013.3 hPa | - | - | - | - |
| 1777576235 | 26.11° C | 80% | 1013.4 hPa | - | - | - | - |
| 1777575335 | 25.56° C | 83% | 1013.4 hPa | - | - | - | - |
| 1777574434 | 24.44° C | 89% | 1013.6 hPa | - | - | - | - |
| 1777573534 | 25° C | 85% | 1013.6 hPa | - | - | - | - |
| 1777572634 | 25.56° C | 82% | 1013.6 hPa | - | - | - | - |
| 1777571734 | 25.56° C | 83% | 1013.9 hPa | - | - | - | - |
| 1777570834 | 24.44° C | 88% | 1013.9 hPa | - | - | - | - |
| 1777569934 | 22.78° C | 97% | 1014.4 hPa | - | - | - | - |
| 1777569033 | 23.33° C | 95% | 1014.5 hPa | - | - | - | - |
| 1777568133 | 23.33° C | 93% | 1014.6 hPa | - | - | - | - |
* Rain since midnight (hover to see other rain measurements)
** Current wind speed in m/s (hover to see current wind gust speed)